Airfield :
LOGIN :

Register | Disclaimer

   EN    FR    IT 

 










Legend :    VFR   Marginal VFR   IFR   Intensive IFR   Very Intensive IFR
Visi :
Ceiling :
>= 8 km
>= 3000ft
5 to 8 km
1000 to 3000 ft
1500m to 5 km
500 to 1000 ft
800 to 1500m
200 to 500 ft
< 800m
< 200 ft
Symbols :   Thunderstorms  Fog  Heavy snow  Heavy precipitations  Wind > 20 kt
SIGMETs :     Misc.  Thunderstorms  Icing  Turbulence  Mountain Waves  Volcanic Ashes






- Airport Elevation : 228 ft
- IATA code : OPO


LPPR - Porto Fr. Sa Carneiro

CURRENT METAR :
  • 202000Z 21008KT 5000 -RADZ BR OVC002 15/15 Q0996

EXPIRED METARs :
  • 201930Z 19005KT 4500 BR SCT001 BKN003 15/15 Q0996
  • 201900Z 20003KT 170V230 7000 -RA BKN003 15/15 Q0996 RERA
  • 201830Z 22004KT 3500 -RA BR SCT007 SCT011 BKN030 15/15 Q0996
  • 201800Z 00000KT 7000 -RA FEW011 BKN030 15/15 Q0995
  • 201730Z VRB02KT 9999 -RA FEW011 SCT030 15/15 Q0995

TAF TAF LPPR
Valid from the 20 at 18:00 until the 21 at 18:00 UTC


201700Z 2018/2118 15008KT 8000 -RA SCT008 BKN030
TEMPO 2018/2118 2000 RADZ BR SCT004 BKN008
PROB30
TEMPO 2018/2024 1200 +DZRA BR SCT001 BKN003
BECMG 2021/2024 19015KT



MET'MAP, your aeronautical weather chart ! - Copyright ORBIFLY December 2007 - Disclaimer

ORBIFLY MET'MAP TEAM :

Programming & Development : Alexandra Zaïnal
Concept & original design : Baudouin d'Aumeries
Assistance for programming : Marc-Olivier Méhu
Technical & hardware support : Manuel Goepfert

Contact : metmap@orbifly.com




SOURCES & CREDITS :

   NOAA